createdAt,value
2016-11-04T00:00:28.091Z,25.88
2016-11-04T00:01:08.751Z,25.85
2016-11-04T00:01:49.455Z,25.9
2016-11-04T00:02:30.139Z,25.9
2016-11-04T00:03:10.789Z,25.91
2016-11-04T00:03:51.483Z,25.91
2016-11-04T00:04:32.142Z,25.77
2016-11-04T00:05:12.852Z,25.91
2016-11-04T00:05:53.552Z,25.79
2016-11-04T00:06:34.216Z,25.83
2016-11-04T00:07:14.895Z,25.85
2016-11-04T00:07:55.592Z,25.85
2016-11-04T00:08:36.264Z,25.83
2016-11-04T00:09:16.918Z,25.83
2016-11-04T00:09:57.600Z,25.91
2016-11-04T00:10:38.300Z,25.85
2016-11-04T00:11:18.964Z,25.83
2016-11-04T00:11:59.636Z,25.9
2016-11-04T00:12:40.313Z,25.87
2016-11-04T00:13:20.945Z,25.87
2016-11-04T00:14:01.605Z,25.83
2016-11-04T00:14:42.301Z,25.9
2016-11-04T00:15:23.037Z,25.92
2016-11-04T00:16:03.750Z,25.85
2016-11-04T00:16:44.458Z,25.94
2016-11-04T00:17:25.103Z,25.87
2016-11-04T00:18:05.768Z,25.87
2016-11-04T00:18:46.505Z,25.91
2016-11-04T00:19:27.211Z,25.83
2016-11-04T00:20:07.872Z,25.87
2016-11-04T00:20:48.540Z,25.82
2016-11-04T00:21:29.247Z,25.87
2016-11-04T00:22:09.933Z,25.85
2016-11-04T00:22:50.634Z,25.87
2016-11-04T00:23:31.324Z,25.85
2016-11-04T00:24:12.042Z,25.91
2016-11-04T00:24:52.740Z,25.79
2016-11-04T00:25:33.429Z,25.91
2016-11-04T00:26:14.100Z,25.83
2016-11-04T00:26:54.777Z,25.83
2016-11-04T00:27:35.417Z,25.9
2016-11-04T00:28:16.111Z,25.87
2016-11-04T00:28:56.827Z,25.85
2016-11-04T00:29:37.543Z,25.87
2016-11-04T00:30:18.234Z,25.87
2016-11-04T00:30:58.934Z,25.87
2016-11-04T00:31:39.639Z,25.88
2016-11-04T00:32:20.307Z,25.87
2016-11-04T00:33:01.044Z,25.83
2016-11-04T00:33:41.721Z,25.85
2016-11-04T00:34:22.412Z,25.85
2016-11-04T00:35:03.101Z,25.79
2016-11-04T00:35:43.768Z,25.9
2016-11-04T00:36:24.441Z,25.92
2016-11-04T00:37:05.111Z,25.83
2016-11-04T00:37:45.820Z,25.76
2016-11-04T00:38:26.527Z,25.85
2016-11-04T00:39:07.179Z,25.8
2016-11-04T00:39:47.874Z,25.87
2016-11-04T00:40:28.592Z,25.88
2016-11-04T00:41:09.283Z,25.82
2016-11-04T00:41:49.965Z,25.85
2016-11-04T00:42:30.629Z,25.8
2016-11-04T00:43:11.344Z,25.87
2016-11-04T00:43:51.971Z,25.82
2016-11-04T00:44:32.685Z,25.88
2016-11-04T00:45:13.325Z,25.8
2016-11-04T00:45:54.013Z,25.9
2016-11-04T00:46:34.708Z,25.87
2016-11-04T00:47:15.381Z,25.79
2016-11-04T00:47:56.053Z,25.76
2016-11-04T00:48:36.694Z,25.77
2016-11-04T00:49:17.453Z,25.77
2016-11-04T00:49:58.144Z,25.79
2016-11-04T00:50:38.826Z,25.8
2016-11-04T00:51:19.551Z,25.8
2016-11-04T00:52:00.248Z,25.79
2016-11-04T00:52:40.944Z,25.79
2016-11-04T00:53:21.662Z,25.75
2016-11-04T00:54:02.325Z,25.88
2016-11-04T00:54:42.962Z,25.76
2016-11-04T00:55:23.596Z,25.83
2016-11-04T00:56:04.223Z,25.83
2016-11-04T00:56:44.874Z,25.8
2016-11-04T00:57:25.524Z,25.76
2016-11-04T00:58:06.197Z,25.82
2016-11-04T00:58:46.811Z,25.79
2016-11-04T00:59:27.452Z,25.8
2016-11-04T01:00:08.120Z,25.85
2016-11-04T01:00:48.758Z,25.82
2016-11-04T01:01:29.395Z,25.7
2016-11-04T01:02:10.033Z,25.8
2016-11-04T01:02:50.685Z,25.76
2016-11-04T01:03:31.342Z,25.76
2016-11-04T01:04:11.985Z,25.85
2016-11-04T01:04:52.641Z,25.79
2016-11-04T01:05:33.258Z,25.79
2016-11-04T01:06:13.909Z,25.83
2016-11-04T01:06:54.567Z,25.77
2016-11-04T01:07:35.212Z,25.8
2016-11-04T01:08:15.874Z,25.8
2016-11-04T01:08:56.536Z,25.85
2016-11-04T01:09:37.169Z,25.77
2016-11-04T01:10:17.827Z,25.8
2016-11-04T01:10:58.485Z,25.79
2016-11-04T01:11:39.147Z,25.76
2016-11-04T01:12:19.795Z,25.75
2016-11-04T01:13:00.449Z,25.79
2016-11-04T01:13:41.112Z,25.83
2016-11-04T01:14:21.757Z,25.8
2016-11-04T01:15:02.373Z,25.82
2016-11-04T01:15:43.039Z,25.77
2016-11-04T01:16:23.689Z,25.82
2016-11-04T01:17:04.314Z,25.77
2016-11-04T01:17:44.957Z,25.83
2016-11-04T01:18:25.606Z,25.79
2016-11-04T01:19:06.270Z,25.82
2016-11-04T01:19:46.913Z,25.79
2016-11-04T01:20:27.586Z,25.73
2016-11-04T01:21:08.229Z,25.77
2016-11-04T01:21:48.836Z,25.8
2016-11-04T01:22:29.483Z,25.7
2016-11-04T01:23:10.121Z,25.79
2016-11-04T01:23:50.757Z,25.75
2016-11-04T01:24:31.450Z,25.82
2016-11-04T01:25:12.130Z,25.77
2016-11-04T01:25:52.778Z,25.76
2016-11-04T01:26:33.463Z,25.73
2016-11-04T01:27:14.115Z,25.76
2016-11-04T01:27:54.765Z,25.8
2016-11-04T01:28:35.428Z,25.76
2016-11-04T01:29:16.063Z,25.76
2016-11-04T01:29:56.731Z,25.73
2016-11-04T01:30:37.383Z,25.79
2016-11-04T01:31:18.037Z,25.82
2016-11-04T01:31:58.677Z,25.79
2016-11-04T01:32:39.336Z,25.75
2016-11-04T01:33:20.053Z,25.87
2016-11-04T01:34:00.764Z,25.7
2016-11-04T01:34:41.430Z,25.76
2016-11-04T01:35:22.155Z,25.76
2016-11-04T01:36:02.805Z,25.76
2016-11-04T01:36:43.474Z,25.8
2016-11-04T01:37:24.104Z,25.72
2016-11-04T01:38:04.791Z,25.72
2016-11-04T01:38:45.504Z,25.77
2016-11-04T01:39:26.128Z,25.72
2016-11-04T01:40:06.882Z,25.73
2016-11-04T01:40:47.566Z,25.7
2016-11-04T01:41:28.264Z,25.77
2016-11-04T01:42:08.986Z,25.79
2016-11-04T01:42:49.681Z,25.7
2016-11-04T01:43:30.366Z,25.73
2016-11-04T01:44:11.047Z,25.8
2016-11-04T01:44:51.737Z,25.77
2016-11-04T01:45:32.440Z,25.75
2016-11-04T01:46:13.155Z,25.7
2016-11-04T01:46:53.872Z,25.76
2016-11-04T01:47:34.569Z,25.73
2016-11-04T01:48:15.266Z,25.72
2016-11-04T01:48:55.972Z,25.76
2016-11-04T01:49:36.640Z,25.72
2016-11-04T01:50:17.335Z,25.79
2016-11-04T01:50:58.028Z,25.77
2016-11-04T01:51:38.708Z,25.79
2016-11-04T01:52:19.424Z,25.7
2016-11-04T01:53:00.106Z,25.77
2016-11-04T01:53:40.747Z,25.73
2016-11-04T01:54:21.444Z,25.79
2016-11-04T01:55:02.101Z,25.75
2016-11-04T01:55:42.793Z,25.77
2016-11-04T01:56:23.460Z,25.72
2016-11-04T01:57:04.138Z,25.73
2016-11-04T01:57:44.845Z,25.75
2016-11-04T01:58:25.576Z,25.73
2016-11-04T01:59:06.253Z,25.8
2016-11-04T01:59:46.899Z,25.75
2016-11-04T02:00:27.593Z,25.75
2016-11-04T02:01:08.269Z,25.82
2016-11-04T02:01:48.957Z,25.76
2016-11-04T02:02:29.637Z,25.79
2016-11-04T02:03:10.322Z,25.77
2016-11-04T02:03:51.026Z,25.7
2016-11-04T02:04:31.783Z,25.75
2016-11-04T02:05:12.461Z,25.79
2016-11-04T02:05:53.188Z,25.76
2016-11-04T02:06:33.853Z,25.7
2016-11-04T02:07:14.570Z,25.77
2016-11-04T02:07:55.305Z,25.73
2016-11-04T02:08:36.051Z,25.76
2016-11-04T02:09:16.723Z,25.73
2016-11-04T02:09:57.392Z,25.75
2016-11-04T02:10:38.099Z,25.75
2016-11-04T02:11:18.790Z,25.72
2016-11-04T02:11:59.506Z,25.76
2016-11-04T02:12:40.173Z,25.72
2016-11-04T02:13:20.881Z,25.77
2016-11-04T02:14:01.547Z,25.73
2016-11-04T02:14:42.286Z,25.72
2016-11-04T02:15:22.960Z,25.73
2016-11-04T02:16:03.637Z,25.75
2016-11-04T02:16:44.320Z,25.77
2016-11-04T02:17:25.034Z,25.65
2016-11-04T02:18:05.671Z,25.73
2016-11-04T02:18:46.404Z,25.8
2016-11-04T02:19:27.083Z,25.76
2016-11-04T02:20:07.792Z,25.79
2016-11-04T02:20:48.507Z,25.7
2016-11-04T02:21:29.188Z,25.75
2016-11-04T02:22:09.896Z,25.69
2016-11-04T02:22:50.560Z,25.7
2016-11-04T02:23:31.258Z,25.73
2016-11-04T02:24:11.936Z,25.7
2016-11-04T02:24:52.573Z,25.75
2016-11-04T02:25:33.296Z,25.77
2016-11-04T02:26:13.985Z,25.72
2016-11-04T02:26:54.647Z,25.72
2016-11-04T02:27:35.317Z,25.69
2016-11-04T02:28:15.989Z,25.77
2016-11-04T02:28:56.703Z,25.76
2016-11-04T02:29:37.384Z,25.67
2016-11-04T02:30:18.070Z,25.69
2016-11-04T02:30:58.768Z,25.73
2016-11-04T02:31:39.425Z,25.73
2016-11-04T02:32:20.163Z,25.7
2016-11-04T02:33:00.808Z,25.75
2016-11-04T02:33:41.474Z,25.73
2016-11-04T02:34:22.186Z,25.75
2016-11-04T02:35:02.845Z,25.72
2016-11-04T02:35:43.518Z,25.75
2016-11-04T02:36:24.243Z,25.73
2016-11-04T02:37:04.927Z,25.72
2016-11-04T02:37:45.632Z,25.72
2016-11-04T02:38:26.341Z,25.72
2016-11-04T02:39:06.997Z,25.73
2016-11-04T02:39:47.700Z,25.79
2016-11-04T02:40:28.333Z,25.72
2016-11-04T02:41:08.979Z,25.69
2016-11-04T02:41:49.694Z,25.75
2016-11-04T02:42:30.372Z,25.75
2016-11-04T02:43:11.044Z,25.79
2016-11-04T02:43:51.731Z,25.7
2016-11-04T02:44:32.396Z,25.76
2016-11-04T02:45:13.084Z,25.76
2016-11-04T02:45:53.797Z,25.76
2016-11-04T02:46:34.459Z,25.73
2016-11-04T02:47:15.134Z,25.73
2016-11-04T02:47:55.819Z,25.73
2016-11-04T02:48:36.541Z,25.7
2016-11-04T02:49:17.240Z,25.7
2016-11-04T02:49:57.910Z,25.73
2016-11-04T02:50:38.598Z,25.73
2016-11-04T02:51:19.307Z,25.67
2016-11-04T02:51:59.989Z,25.7
2016-11-04T02:52:40.708Z,25.75
2016-11-04T02:53:21.413Z,25.76
2016-11-04T02:54:02.050Z,25.67
2016-11-04T02:54:42.718Z,25.73
2016-11-04T02:55:23.406Z,25.69
2016-11-04T02:56:04.061Z,25.62
2016-11-04T02:56:44.764Z,25.67
2016-11-04T02:57:25.446Z,25.72
2016-11-04T02:58:06.155Z,25.7
2016-11-04T02:58:46.814Z,25.75
2016-11-04T02:59:27.523Z,25.64
2016-11-04T03:00:08.168Z,25.72
2016-11-04T03:00:48.878Z,25.75
2016-11-04T03:01:29.610Z,25.7
2016-11-04T03:02:10.260Z,25.76
2016-11-04T03:02:50.958Z,25.75
2016-11-04T03:03:31.614Z,25.65
2016-11-04T03:04:12.302Z,25.76
2016-11-04T03:04:53.005Z,25.64
2016-11-04T03:05:33.726Z,25.7
2016-11-04T03:06:14.457Z,25.67
2016-11-04T03:06:55.093Z,25.7
2016-11-04T03:07:35.784Z,25.7
2016-11-04T03:08:16.464Z,25.67
2016-11-04T03:08:57.146Z,25.72
2016-11-04T03:09:37.797Z,25.72
2016-11-04T03:10:18.522Z,25.72
2016-11-04T03:10:59.219Z,25.79
2016-11-04T03:11:39.944Z,25.73
2016-11-04T03:12:20.630Z,25.69
2016-11-04T03:13:01.303Z,25.72
2016-11-04T03:13:41.979Z,25.76
2016-11-04T03:14:22.610Z,25.67
2016-11-04T03:15:03.295Z,25.69
2016-11-04T03:15:43.973Z,25.64
2016-11-04T03:16:24.642Z,25.77
2016-11-04T03:17:05.298Z,25.67
2016-11-04T03:17:46.015Z,25.73
2016-11-04T03:18:26.672Z,25.64
2016-11-04T03:19:07.387Z,25.67
2016-11-04T03:19:48.109Z,25.69
2016-11-04T03:20:28.820Z,25.65
2016-11-04T03:21:09.490Z,25.62
2016-11-04T03:21:50.186Z,25.65
2016-11-04T03:22:30.882Z,25.72
2016-11-04T03:23:11.538Z,25.7
2016-11-04T03:23:52.298Z,25.67
2016-11-04T03:24:33.013Z,25.72
2016-11-04T03:25:13.726Z,25.75
2016-11-04T03:25:54.420Z,25.69
2016-11-04T03:26:35.099Z,25.76
2016-11-04T03:27:15.758Z,25.73
2016-11-04T03:27:56.456Z,25.72
2016-11-04T03:28:37.130Z,25.75
2016-11-04T03:29:17.810Z,25.65
2016-11-04T03:29:58.473Z,25.67
2016-11-04T03:30:39.225Z,25.7
2016-11-04T03:31:19.902Z,25.73
2016-11-04T03:32:00.608Z,25.67
2016-11-04T03:32:41.304Z,25.73
2016-11-04T03:33:21.966Z,25.76
2016-11-04T03:34:02.652Z,25.69
2016-11-04T03:34:43.330Z,25.7
2016-11-04T03:35:24.618Z,25.7
2016-11-04T03:36:05.309Z,25.64
2016-11-04T03:36:45.987Z,25.72
2016-11-04T03:37:26.672Z,25.76
2016-11-04T03:38:07.329Z,25.7
2016-11-04T03:38:48.050Z,25.67
2016-11-04T03:39:28.784Z,25.67
2016-11-04T03:40:09.450Z,25.64
2016-11-04T03:40:50.150Z,25.69
2016-11-04T03:41:30.823Z,25.69
2016-11-04T03:42:11.523Z,25.67
2016-11-04T03:42:52.260Z,25.73
2016-11-04T03:43:32.951Z,25.64
2016-11-04T03:44:13.636Z,25.65
2016-11-04T03:44:54.303Z,25.65
2016-11-04T03:45:34.962Z,25.72
2016-11-04T03:46:15.627Z,25.7
2016-11-04T03:46:56.322Z,25.69
2016-11-04T03:47:37.004Z,25.75
2016-11-04T03:48:17.680Z,25.69
2016-11-04T03:48:58.328Z,25.64
2016-11-04T03:49:39.073Z,25.75
2016-11-04T03:50:19.729Z,25.69
2016-11-04T03:51:00.440Z,25.69
2016-11-04T03:51:41.096Z,25.62
2016-11-04T03:52:21.769Z,25.65
2016-11-04T03:53:02.418Z,25.73
2016-11-04T03:53:43.137Z,25.73
2016-11-04T03:54:23.762Z,25.73
2016-11-04T03:55:04.458Z,25.67
2016-11-04T03:55:45.088Z,25.62
2016-11-04T03:56:25.778Z,25.67
2016-11-04T03:57:06.473Z,25.67
2016-11-04T03:57:47.099Z,25.67
2016-11-04T03:58:27.740Z,25.65
2016-11-04T03:59:08.375Z,25.69
2016-11-04T03:59:49.079Z,25.72
2016-11-04T04:00:29.822Z,25.64
2016-11-04T04:01:10.472Z,25.67
2016-11-04T04:01:51.129Z,25.62
2016-11-04T04:02:31.834Z,25.65
2016-11-04T04:03:12.489Z,25.61
2016-11-04T04:03:53.203Z,25.67
2016-11-04T04:04:33.928Z,25.62
2016-11-04T04:05:14.566Z,25.69
2016-11-04T04:05:55.265Z,25.62
2016-11-04T04:06:35.995Z,25.7
2016-11-04T04:07:16.729Z,25.69
2016-11-04T04:07:57.391Z,25.61
2016-11-04T04:08:38.100Z,25.67
2016-11-04T04:09:18.797Z,25.62
2016-11-04T04:09:59.463Z,25.67
2016-11-04T04:10:40.153Z,25.58
2016-11-04T04:11:20.792Z,25.62
2016-11-04T04:12:01.458Z,25.62
2016-11-04T04:12:42.141Z,25.64
2016-11-04T04:13:22.810Z,25.7
2016-11-04T04:14:03.467Z,25.61
2016-11-04T04:14:44.187Z,25.67
2016-11-04T04:15:24.839Z,25.62
2016-11-04T04:16:05.534Z,25.65
2016-11-04T04:16:46.232Z,25.62
2016-11-04T04:17:26.865Z,25.61
2016-11-04T04:18:07.534Z,25.67
2016-11-04T04:18:48.224Z,25.62
2016-11-04T04:19:28.942Z,25.61
2016-11-04T04:20:09.622Z,25.64
2016-11-04T04:20:50.294Z,25.67
2016-11-04T04:21:31.025Z,25.62
2016-11-04T04:22:11.705Z,25.62
2016-11-04T04:22:52.376Z,25.64
2016-11-04T04:23:33.014Z,25.7
2016-11-04T04:24:13.728Z,25.72
2016-11-04T04:24:54.412Z,25.72
2016-11-04T04:25:35.108Z,25.7
2016-11-04T04:26:15.791Z,25.65
2016-11-04T04:26:56.485Z,25.61
2016-11-04T04:27:37.162Z,25.69
2016-11-04T04:28:17.851Z,25.62
2016-11-04T04:28:58.548Z,25.65
2016-11-04T04:29:39.248Z,25.67
2016-11-04T04:30:19.978Z,25.65
2016-11-04T04:31:00.640Z,25.65
2016-11-04T04:31:41.285Z,25.67
2016-11-04T04:32:21.966Z,25.64
2016-11-04T04:33:02.680Z,25.61
2016-11-04T04:33:43.378Z,25.62
2016-11-04T04:34:24.022Z,25.58
2016-11-04T04:35:04.748Z,25.61
2016-11-04T04:35:45.451Z,25.57
2016-11-04T04:36:26.152Z,25.62
2016-11-04T04:37:06.865Z,25.58
2016-11-04T04:37:47.565Z,25.61
2016-11-04T04:38:28.310Z,25.57
2016-11-04T04:39:09.032Z,25.62
2016-11-04T04:39:49.743Z,25.64
2016-11-04T04:40:30.442Z,25.61
2016-11-04T04:41:11.143Z,25.62
2016-11-04T04:41:51.846Z,25.64
2016-11-04T04:42:32.568Z,25.64
2016-11-04T04:43:13.313Z,25.6
2016-11-04T04:43:53.973Z,25.6
2016-11-04T04:44:34.688Z,25.58
2016-11-04T04:45:15.376Z,25.57
2016-11-04T04:45:56.035Z,25.57
2016-11-04T04:46:36.743Z,25.58
2016-11-04T04:47:17.397Z,25.6
2016-11-04T04:47:58.156Z,25.61
2016-11-04T04:48:38.817Z,25.65
2016-11-04T04:49:19.522Z,25.6
2016-11-04T04:50:00.186Z,25.61
2016-11-04T04:50:40.871Z,25.7
2016-11-04T04:51:21.520Z,25.67
2016-11-04T04:52:02.203Z,25.61
2016-11-04T04:52:42.878Z,25.64
2016-11-04T04:53:23.546Z,25.61
2016-11-04T04:54:04.214Z,25.65
2016-11-04T04:54:44.917Z,25.61
2016-11-04T04:55:25.610Z,25.62
2016-11-04T04:56:06.274Z,25.62
2016-11-04T04:56:46.932Z,25.58
2016-11-04T04:57:27.665Z,25.57
2016-11-04T04:58:08.359Z,25.61
2016-11-04T04:58:49.051Z,25.62
2016-11-04T04:59:29.722Z,25.64
2016-11-04T05:00:10.397Z,25.57
2016-11-04T05:00:51.071Z,25.61
2016-11-04T05:01:31.808Z,25.62
2016-11-04T05:02:12.459Z,25.57
2016-11-04T05:02:53.161Z,25.6
2016-11-04T05:03:33.833Z,25.62
2016-11-04T05:04:14.548Z,25.62
2016-11-04T05:04:55.231Z,25.57
2016-11-04T05:05:35.949Z,25.57
2016-11-04T05:06:16.645Z,25.61
2016-11-04T05:06:57.337Z,25.61
2016-11-04T05:07:38.042Z,25.55
2016-11-04T05:08:18.834Z,25.64
2016-11-04T05:08:59.462Z,25.65
2016-11-04T05:09:40.209Z,25.65
2016-11-04T05:10:20.873Z,25.61
2016-11-04T05:11:01.564Z,25.57
2016-11-04T05:11:42.256Z,25.6
2016-11-04T05:12:22.984Z,25.62
2016-11-04T05:13:03.700Z,25.57
2016-11-04T05:13:44.357Z,25.61
2016-11-04T05:14:25.052Z,25.61
2016-11-04T05:15:05.748Z,25.6
2016-11-04T05:15:46.385Z,25.67
2016-11-04T05:16:27.086Z,25.6
2016-11-04T05:17:07.736Z,25.6
2016-11-04T05:17:48.435Z,25.57
2016-11-04T05:18:29.131Z,25.61
2016-11-04T05:19:09.809Z,25.62
2016-11-04T05:19:50.466Z,25.57
2016-11-04T05:20:31.176Z,25.6
2016-11-04T05:21:11.861Z,25.61
2016-11-04T05:21:52.568Z,25.6
2016-11-04T05:22:33.204Z,25.61
2016-11-04T05:23:13.924Z,25.58
2016-11-04T05:23:54.605Z,25.57
2016-11-04T05:24:35.298Z,25.62
2016-11-04T05:25:15.998Z,25.64
2016-11-04T05:25:56.709Z,25.64
2016-11-04T05:26:37.412Z,25.62
2016-11-04T05:27:18.151Z,25.64
2016-11-04T05:27:58.837Z,25.6
2016-11-04T05:28:39.516Z,25.6
2016-11-04T05:29:20.235Z,25.64
2016-11-04T05:30:00.907Z,25.61
2016-11-04T05:30:41.601Z,25.61
2016-11-04T05:31:22.327Z,25.57
2016-11-04T05:32:02.948Z,25.57
2016-11-04T05:32:43.640Z,25.58
2016-11-04T05:33:24.260Z,25.58
2016-11-04T05:34:04.959Z,25.67
2016-11-04T05:34:45.648Z,25.58
2016-11-04T05:35:26.319Z,25.62
2016-11-04T05:36:07.009Z,25.62
2016-11-04T05:36:47.708Z,25.6
2016-11-04T05:37:28.342Z,25.57
2016-11-04T05:38:09.007Z,25.69
2016-11-04T05:38:49.671Z,25.61
2016-11-04T05:39:30.350Z,25.6
2016-11-04T05:40:10.977Z,25.61
2016-11-04T05:40:51.694Z,25.65
2016-11-04T05:41:32.380Z,25.58
2016-11-04T05:42:13.044Z,25.64
2016-11-04T05:42:53.761Z,25.69
2016-11-04T05:43:34.446Z,25.65
2016-11-04T05:44:15.105Z,25.62
2016-11-04T05:44:55.840Z,25.57
2016-11-04T05:45:36.476Z,25.6
2016-11-04T05:46:17.188Z,25.67
2016-11-04T05:46:57.869Z,25.57
2016-11-04T05:47:38.559Z,25.58
2016-11-04T05:48:19.212Z,25.58
2016-11-04T05:48:59.855Z,25.61
2016-11-04T05:49:41.040Z,25.61
2016-11-04T05:50:21.203Z,25.64
2016-11-04T05:51:01.884Z,25.61
2016-11-04T05:51:42.561Z,25.6
2016-11-04T05:52:23.221Z,25.65
2016-11-04T05:53:03.908Z,25.58
2016-11-04T05:53:44.571Z,25.61
2016-11-04T05:54:25.265Z,25.57
2016-11-04T05:55:05.918Z,25.55
2016-11-04T05:55:46.605Z,25.58
2016-11-04T05:56:27.303Z,25.61
2016-11-04T05:57:08.032Z,25.6
2016-11-04T05:57:48.735Z,25.6
2016-11-04T05:58:29.432Z,25.67
2016-11-04T05:59:10.099Z,25.61
2016-11-04T05:59:50.810Z,25.58
2016-11-04T06:00:31.527Z,25.58
2016-11-04T06:01:12.223Z,25.6
2016-11-04T06:01:52.894Z,25.67
2016-11-04T06:02:33.600Z,25.64
2016-11-04T06:03:14.268Z,25.58
2016-11-04T06:03:54.975Z,25.58
2016-11-04T06:04:35.639Z,25.65
2016-11-04T06:05:16.335Z,25.54
2016-11-04T06:05:57.002Z,25.55
2016-11-04T06:06:37.692Z,25.6
2016-11-04T06:07:18.372Z,25.55
2016-11-04T06:07:59.025Z,25.62
2016-11-04T06:08:39.719Z,25.55
2016-11-04T06:09:20.361Z,25.55
2016-11-04T06:10:01.024Z,25.58
2016-11-04T06:10:42.682Z,25.69
2016-11-04T06:11:23.383Z,25.65
2016-11-04T06:12:04.092Z,25.61
2016-11-04T06:12:44.773Z,25.61
2016-11-04T06:13:25.452Z,25.58
2016-11-04T06:14:06.131Z,25.6
2016-11-04T06:14:46.823Z,25.6
2016-11-04T06:15:27.567Z,25.61
2016-11-04T06:16:08.284Z,25.6
2016-11-04T06:16:49.155Z,25.58
2016-11-04T06:17:29.882Z,25.57
2016-11-04T06:18:10.551Z,25.55
2016-11-04T06:18:51.286Z,25.6
2016-11-04T06:19:31.960Z,25.55
2016-11-04T06:20:12.612Z,25.61
2016-11-04T06:20:53.325Z,25.52
2016-11-04T06:21:33.974Z,25.6
2016-11-04T06:22:14.649Z,25.61
2016-11-04T06:22:55.302Z,25.58
2016-11-04T06:23:36.030Z,25.61
2016-11-04T06:24:16.685Z,25.62
2016-11-04T06:24:57.330Z,25.57
2016-11-04T06:25:38.000Z,25.6
2016-11-04T06:26:18.636Z,25.61
2016-11-04T06:26:59.357Z,25.61
2016-11-04T06:27:40.024Z,25.52
2016-11-04T06:28:20.731Z,25.62
2016-11-04T06:29:01.414Z,25.61
2016-11-04T06:29:42.074Z,25.6
2016-11-04T06:30:22.750Z,25.57
2016-11-04T06:31:03.453Z,25.6
2016-11-04T06:31:44.135Z,25.54
2016-11-04T06:32:24.791Z,25.54
2016-11-04T06:33:05.438Z,25.58
2016-11-04T06:33:46.108Z,25.58
2016-11-04T06:34:26.786Z,25.61
2016-11-04T06:35:07.432Z,25.57
2016-11-04T06:35:48.092Z,25.57
2016-11-04T06:36:28.744Z,25.6
2016-11-04T06:37:09.448Z,25.55
2016-11-04T06:37:50.166Z,25.54
2016-11-04T06:38:30.870Z,25.58
2016-11-04T06:39:11.586Z,25.54
2016-11-04T06:39:52.291Z,25.54
2016-11-04T06:40:33.023Z,25.57
2016-11-04T06:41:13.736Z,25.55
2016-11-04T06:41:54.381Z,25.54
2016-11-04T06:42:35.042Z,25.52
2016-11-04T06:43:15.736Z,25.61
2016-11-04T06:43:56.400Z,25.6
2016-11-04T06:44:37.062Z,25.57
2016-11-04T06:45:17.728Z,25.55
2016-11-04T06:45:58.410Z,25.61
2016-11-04T06:46:39.113Z,25.6
2016-11-04T06:47:19.791Z,25.57
2016-11-04T06:48:00.473Z,25.61
2016-11-04T06:48:41.191Z,25.6
2016-11-04T06:49:21.912Z,25.61
2016-11-04T06:50:02.638Z,25.54
2016-11-04T06:50:43.344Z,25.67
2016-11-04T06:51:24.037Z,25.62
2016-11-04T06:52:04.678Z,25.65
2016-11-04T06:52:45.377Z,25.64
2016-11-04T06:53:26.037Z,25.69
2016-11-04T06:54:06.737Z,25.67
2016-11-04T06:54:47.418Z,25.69
2016-11-04T06:55:28.100Z,25.75
2016-11-04T06:56:08.798Z,25.73
2016-11-04T06:56:49.424Z,25.72
2016-11-04T06:57:30.123Z,25.76
2016-11-04T06:58:10.814Z,25.76
2016-11-04T06:58:51.484Z,25.67
2016-11-04T06:59:32.174Z,25.73
2016-11-04T07:00:12.839Z,25.75
2016-11-04T07:00:53.500Z,25.77
2016-11-04T07:01:34.199Z,25.72
2016-11-04T07:02:14.848Z,25.8
2016-11-04T07:02:55.552Z,25.75
2016-11-04T07:03:36.242Z,25.72
2016-11-04T07:04:16.898Z,25.79
2016-11-04T07:04:57.585Z,25.77
2016-11-04T07:05:38.271Z,25.75
2016-11-04T07:06:19.008Z,25.87
2016-11-04T07:06:59.728Z,25.79
2016-11-04T07:07:40.414Z,25.9
2016-11-04T07:08:21.098Z,25.85
2016-11-04T07:09:01.755Z,25.83
2016-11-04T07:09:42.425Z,25.85
2016-11-04T07:10:23.112Z,25.88
2016-11-04T07:11:03.801Z,25.83
2016-11-04T07:11:44.491Z,25.92
2016-11-04T07:12:25.269Z,25.9
2016-11-04T07:13:05.956Z,25.94
2016-11-04T07:13:46.618Z,25.91
2016-11-04T07:14:27.297Z,25.88
2016-11-04T07:15:08.025Z,25.9
2016-11-04T07:15:48.730Z,25.91
2016-11-04T07:16:29.421Z,25.91
2016-11-04T07:17:10.121Z,25.92
2016-11-04T07:17:50.797Z,25.92
2016-11-04T07:18:31.482Z,25.87
2016-11-04T07:19:12.159Z,25.99
2016-11-04T07:19:52.876Z,26.06
2016-11-04T07:20:33.524Z,26.05
2016-11-04T07:21:14.209Z,25.94
2016-11-04T07:21:54.872Z,26.05
2016-11-04T07:22:35.548Z,25.91
2016-11-04T07:23:16.191Z,25.99
2016-11-04T07:23:56.878Z,26.02
2016-11-04T07:24:37.539Z,25.98
2016-11-04T07:25:18.223Z,26.01
2016-11-04T07:25:58.907Z,25.99
2016-11-04T07:26:39.620Z,26.06
2016-11-04T07:27:20.243Z,26.06
2016-11-04T07:28:00.893Z,26.05
2016-11-04T07:28:41.569Z,25.99
2016-11-04T07:29:22.221Z,26.05
2016-11-04T07:30:02.923Z,25.95
2016-11-04T07:30:43.638Z,26.1
2016-11-04T07:31:24.321Z,25.98
2016-11-04T07:32:05.039Z,26.01
2016-11-04T07:32:45.752Z,25.99
2016-11-04T07:33:26.397Z,25.91
2016-11-04T07:34:07.368Z,26.06
2016-11-04T07:34:48.034Z,25.99
2016-11-04T07:35:28.749Z,26.02
2016-11-04T07:36:09.378Z,26.02
2016-11-04T07:36:50.101Z,25.99
2016-11-04T07:37:30.751Z,26.05
2016-11-04T07:38:11.430Z,26.06
2016-11-04T07:38:52.114Z,25.99
2016-11-04T07:39:32.792Z,26.05
2016-11-04T07:40:13.489Z,26.06
2016-11-04T07:40:54.211Z,25.99
2016-11-04T07:41:34.887Z,26.09
2016-11-04T07:42:15.540Z,26.06
2016-11-04T07:42:56.240Z,26.07
2016-11-04T07:43:36.934Z,26.02
2016-11-04T07:44:17.611Z,26.06
2016-11-04T07:44:58.321Z,26.09
2016-11-04T07:45:38.985Z,26.09
2016-11-04T07:46:19.678Z,26.07
2016-11-04T07:47:00.373Z,26.05
2016-11-04T07:47:41.044Z,26.02
2016-11-04T07:48:21.743Z,26.06
2016-11-04T07:49:02.465Z,26.07
2016-11-04T07:49:43.130Z,26.12
2016-11-04T07:50:23.875Z,26.05
2016-11-04T07:51:04.597Z,25.99
2016-11-04T07:51:45.292Z,26.05
2016-11-04T07:52:26.019Z,26.07
2016-11-04T07:53:06.717Z,26.1
2016-11-04T07:53:47.388Z,26.09
2016-11-04T07:54:28.095Z,26.1
2016-11-04T07:55:08.792Z,26.06
2016-11-04T07:55:49.504Z,26.07
2016-11-04T07:56:30.198Z,26.05
2016-11-04T07:57:10.867Z,26.02
2016-11-04T07:57:51.586Z,26.06
2016-11-04T07:58:32.278Z,26.06
2016-11-04T07:59:13.003Z,26.1
2016-11-04T07:59:53.694Z,26.1
2016-11-04T08:00:34.372Z,26.06
2016-11-04T08:01:15.020Z,26.13
2016-11-04T08:01:55.731Z,26.12
2016-11-04T08:02:36.397Z,26.12
2016-11-04T08:03:17.116Z,26.17
2016-11-04T08:03:57.775Z,26.13
2016-11-04T08:04:38.480Z,26.13
2016-11-04T08:05:19.182Z,26.07
2016-11-04T08:05:59.837Z,26.13
2016-11-04T08:06:40.553Z,26.18
2016-11-04T08:07:21.291Z,26.2
2016-11-04T08:08:01.985Z,26.1
2016-11-04T08:08:42.691Z,26.21
2016-11-04T08:09:23.441Z,26.15
2016-11-04T08:10:04.150Z,26.15
2016-11-04T08:10:44.945Z,26.26
2016-11-04T08:11:25.649Z,26.15
2016-11-04T08:12:06.334Z,26.15
2016-11-04T08:12:47.006Z,26.13
2016-11-04T08:13:27.812Z,26.18
2016-11-04T08:14:08.513Z,26.25
2016-11-04T08:14:49.213Z,26.25
2016-11-04T08:15:29.923Z,26.26
2016-11-04T08:16:10.631Z,26.29
2016-11-04T08:16:51.302Z,26.23
2016-11-04T08:17:32.050Z,26.15
2016-11-04T08:18:12.746Z,26.13
2016-11-04T08:18:53.509Z,26.17
2016-11-04T08:19:34.206Z,26.18
2016-11-04T08:20:14.887Z,26.21
2016-11-04T08:20:55.597Z,26.26
2016-11-04T08:21:36.274Z,26.26
2016-11-04T08:22:16.922Z,26.32
2016-11-04T08:22:57.604Z,26.3
2016-11-04T08:23:38.248Z,26.23
2016-11-04T08:24:18.996Z,26.3
2016-11-04T08:24:59.709Z,26.28
2016-11-04T08:25:40.461Z,26.26
2016-11-04T08:26:21.190Z,26.29
2016-11-04T08:27:01.882Z,26.28
2016-11-04T08:27:42.545Z,26.3
2016-11-04T08:28:23.190Z,26.37
2016-11-04T08:29:03.900Z,26.37
2016-11-04T08:29:44.562Z,26.37
2016-11-04T08:30:25.239Z,26.32
2016-11-04T08:31:05.888Z,26.32
2016-11-04T08:31:46.612Z,26.26
2016-11-04T08:32:27.281Z,26.33
2016-11-04T08:33:08.012Z,26.35
2016-11-04T08:33:49.642Z,26.32
2016-11-04T08:34:29.384Z,26.37
2016-11-04T08:35:10.101Z,26.4
2016-11-04T08:35:50.776Z,26.35
2016-11-04T08:36:31.497Z,26.45
2016-11-04T08:37:12.208Z,26.4
2016-11-04T08:37:52.902Z,26.32
2016-11-04T08:38:33.633Z,26.44
2016-11-04T08:39:14.335Z,26.45
2016-11-04T08:39:55.059Z,26.44
2016-11-04T08:40:35.743Z,26.37
2016-11-04T08:41:16.447Z,26.45
2016-11-04T08:41:57.120Z,26.43
2016-11-04T08:42:37.813Z,26.43
2016-11-04T08:43:18.597Z,26.36
2016-11-04T08:43:59.211Z,26.44
2016-11-04T08:44:39.889Z,26.47
2016-11-04T08:45:20.580Z,26.45
2016-11-04T08:46:01.280Z,26.48
2016-11-04T08:46:41.958Z,26.4